Time,TemperatureF,DewpointF,PressureIn,WindDirection,WindDirectionDegrees,WindSpeedMPH,WindSpeedGustMPH,Humidity,HourlyPrecipIn,Conditions,Clouds,dailyrainin,SoftwareType,DateUTC
2013-11-06 00:08:00,63.2,54.0,29.82,SSW,212,3.0,-999.0,72,-99.99,,,0.00,weatherlink.com 1.10,2013-11-05 22:08:00,
2013-11-06 00:23:00,62.9,54.0,29.82,South,171,1.0,-999.0,73,-99.99,,,0.00,weatherlink.com 1.10,2013-11-05 22:23:00,
2013-11-06 00:38:00,62.6,54.0,29.82,SSW,206,0.0,-999.0,74,-99.99,,,0.00,weatherlink.com 1.10,2013-11-05 22:38:00,
2013-11-06 00:53:00,62.1,54.0,29.82,SSW,200,0.0,-999.0,75,-99.99,,,0.00,weatherlink.com 1.10,2013-11-05 22:53:00,
2013-11-06 01:08:00,62.0,54.0,29.81,South,188,1.0,-999.0,74,-99.99,,,0.00,weatherlink.com 1.10,2013-11-05 23:08:00,
2013-11-06 01:23:00,62.1,53.0,29.81,SW,217,0.0,-999.0,72,-99.99,,,0.00,weatherlink.com 1.10,2013-11-05 23:23:00,
2013-11-06 01:38:00,62.1,53.0,29.81,South,179,0.0,-999.0,71,-99.99,,,0.00,weatherlink.com 1.10,2013-11-05 23:38:00,
2013-11-06 01:53:00,62.1,52.0,29.81,South,176,3.0,-999.0,69,-99.99,,,0.00,weatherlink.com 1.10,2013-11-05 23:53:00,
2013-11-06 02:08:00,62.3,52.0,29.81,SSW,213,2.0,-999.0,69,-99.99,,,0.00,weatherlink.com 1.10,2013-11-06 00:08:00,
2013-11-06 02:23:00,62.3,51.0,29.81,SW,229,0.0,-999.0,67,-99.99,,,0.00,weatherlink.com 1.10,2013-11-06 00:23:00,
2013-11-06 02:38:00,62.3,51.0,29.81,South,189,0.0,-999.0,67,-99.99,,,0.00,weatherlink.com 1.10,2013-11-06 00:38:00,
2013-11-06 02:53:00,62.3,51.0,29.80,SW,220,2.0,-999.0,66,-99.99,,,0.00,weatherlink.com 1.10,2013-11-06 00:53:00,
2013-11-06 03:08:00,62.1,51.0,29.80,South,185,2.0,-999.0,66,-99.99,,,0.00,weatherlink.com 1.10,2013-11-06 01:08:00,
2013-11-06 03:23:00,62.3,51.0,29.80,South,182,0.0,-999.0,66,-99.99,,,0.00,weatherlink.com 1.10,2013-11-06 01:23:00,
2013-11-06 03:38:00,62.3,51.0,29.80,SSW,210,3.0,-999.0,66,-99.99,,,0.00,weatherlink.com 1.10,2013-11-06 01:38:00,
2013-11-06 03:53:00,62.4,51.0,29.80,SSW,209,5.0,-999.0,66,-99.99,,,0.00,weatherlink.com 1.10,2013-11-06 01:53:00,
2013-11-06 04:08:00,62.3,51.0,29.80,SSW,200,6.0,-999.0,67,-99.99,,,0.00,weatherlink.com 1.10,2013-11-06 02:08:00,
2013-11-06 04:23:00,62.1,51.0,29.80,South,172,0.0,-999.0,68,-99.99,,,0.00,weatherlink.com 1.10,2013-11-06 02:23:00,
2013-11-06 04:38:00,61.8,51.0,29.80,South,189,0.0,-999.0,68,-99.99,,,0.00,weatherlink.com 1.10,2013-11-06 02:38:00,
2013-11-06 04:53:00,61.5,52.0,29.80,SSW,209,3.0,-999.0,70,-99.99,,,0.00,weatherlink.com 1.10,2013-11-06 02:53:00,
2013-11-06 05:08:00,61.5,52.0,29.80,SSW,192,0.0,-999.0,70,-99.99,,,0.00,weatherlink.com 1.10,2013-11-06 03:08:00,
2013-11-06 05:23:00,61.8,51.0,29.80,SSW,205,1.0,-999.0,69,-99.99,,,0.00,weatherlink.com 1.10,2013-11-06 03:23:00,
2013-11-06 05:38:00,62.1,51.0,29.79,South,171,0.0,-999.0,67,-99.99,,,0.00,weatherlink.com 1.10,2013-11-06 03:38:00,
2013-11-06 05:53:00,62.0,50.0,29.79,SSE,168,5.0,-999.0,66,-99.99,,,0.00,weatherlink.com 1.10,2013-11-06 03:53:00,
2013-11-06 06:08:00,62.0,50.0,29.79,SSW,195,0.0,-999.0,65,-99.99,,,0.00,weatherlink.com 1.10,2013-11-06 04:08:00,
2013-11-06 06:23:00,61.8,49.0,29.79,SSW,193,0.0,-999.0,63,-99.99,,,0.00,weatherlink.com 1.10,2013-11-06 04:23:00,
2013-11-06 06:38:00,62.3,48.0,29.79,SSW,202,8.0,-999.0,61,-99.99,,,0.00,weatherlink.com 1.10,2013-11-06 04:38:00,
2013-11-06 06:53:00,62.4,48.0,29.79,South,174,1.0,-999.0,59,-99.99,,,0.00,weatherlink.com 1.10,2013-11-06 04:53:00,
2013-11-06 07:08:00,62.6,47.0,29.79,SSW,200,0.0,-999.0,58,-99.99,,,0.00,weatherlink.com 1.10,2013-11-06 05:08:00,
2013-11-06 07:23:00,63.2,48.0,29.79,SSE,168,7.0,-999.0,57,-99.99,,,0.00,weatherlink.com 1.10,2013-11-06 05:23:00,
2013-11-06 07:38:00,63.9,47.0,29.79,South,176,5.0,-999.0,55,-99.99,,,0.00,weatherlink.com 1.10,2013-11-06 05:38:00,
2013-11-06 07:53:00,64.5,47.0,29.80,SSE,164,0.0,-999.0,54,-99.99,,,0.00,weatherlink.com 1.10,2013-11-06 05:53:00,
2013-11-06 08:08:00,65.0,47.0,29.80,SSE,164,0.0,-999.0,53,-99.99,,,0.00,weatherlink.com 1.10,2013-11-06 06:08:00,
2013-11-06 08:23:00,66.3,48.0,29.80,South,176,1.0,-999.0,52,-99.99,,,0.00,weatherlink.com 1.10,2013-11-06 06:23:00,
2013-11-06 08:38:00,66.9,48.0,29.80,South,181,4.0,-999.0,50,-99.99,,,0.00,weatherlink.com 1.10,2013-11-06 06:38:00,
2013-11-06 08:53:00,66.4,48.0,29.80,SSE,158,5.0,-999.0,51,-99.99,,,0.00,weatherlink.com 1.10,2013-11-06 06:53:00,
2013-11-06 09:09:00,66.1,47.0,29.80,South,186,0.0,-999.0,51,-99.99,,,0.00,weatherlink.com 1.10,2013-11-06 07:09:00,
2013-11-06 09:24:00,66.3,48.0,29.80,SSE,147,5.0,-999.0,52,-99.99,,,0.00,weatherlink.com 1.10,2013-11-06 07:24:00,
2013-11-06 09:39:00,66.4,48.0,29.79,South,176,1.0,-999.0,51,-99.99,,,0.00,weatherlink.com 1.10,2013-11-06 07:39:00,
2013-11-06 09:54:00,66.8,48.0,29.79,SSE,155,0.0,-999.0,51,-99.99,,,0.00,weatherlink.com 1.10,2013-11-06 07:54:00,
2013-11-06 10:09:00,66.8,48.0,29.79,SE,136,3.0,-999.0,51,-99.99,,,0.00,weatherlink.com 1.10,2013-11-06 08:09:00,
2013-11-06 10:24:00,67.4,48.0,29.79,ESE,116,0.0,-999.0,51,-99.99,,,0.00,weatherlink.com 1.10,2013-11-06 08:24:00,
2013-11-06 10:39:00,68.9,49.0,29.78,SSE,158,1.0,-999.0,49,-99.99,,,0.00,weatherlink.com 1.10,2013-11-06 08:39:00,
2013-11-06 10:54:00,70.3,50.0,29.78,SSE,167,0.0,-999.0,48,-99.99,,,0.00,weatherlink.com 1.10,2013-11-06 08:54:00,
2013-11-06 11:24:00,73.2,48.0,29.77,WSW,247,1.0,-999.0,41,-99.99,,,0.00,weatherlink.com 1.10,2013-11-06 09:24:00,
2013-11-06 11:39:00,72.8,48.0,29.76,SW,215,7.0,-999.0,42,-99.99,,,0.00,weatherlink.com 1.10,2013-11-06 09:39:00,
2013-11-06 11:54:00,73.0,48.0,29.76,South,184,7.0,-999.0,41,-99.99,,,0.00,weatherlink.com 1.10,2013-11-06 09:54:00,
2013-11-06 12:09:00,73.9,74.0,29.76,South,182,8.0,-999.0,100,-99.99,,,0.00,weatherlink.com 1.10,2013-11-06 10:09:00,
2013-11-06 12:24:00,74.0,74.0,29.75,South,185,2.0,-999.0,100,-99.99,,,0.00,weatherlink.com 1.10,2013-11-06 10:24:00,
2013-11-06 12:39:00,74.4,74.0,29.75,SW,217,5.0,-999.0,100,-99.99,,,0.00,weatherlink.com 1.10,2013-11-06 10:39:00,
2013-11-06 12:54:00,74.0,74.0,29.75,South,171,4.0,-999.0,100,-99.99,,,0.00,weatherlink.com 1.10,2013-11-06 10:54:00,
2013-11-06 13:09:00,73.5,74.0,29.75,South,191,5.0,-999.0,100,-99.99,,,0.00,weatherlink.com 1.10,2013-11-06 11:09:00,
2013-11-06 13:24:00,74.0,74.0,29.74,SSW,196,0.0,-999.0,100,-99.99,,,0.00,weatherlink.com 1.10,2013-11-06 11:24:00,
2013-11-06 13:39:00,74.0,74.0,29.74,South,174,1.0,-999.0,100,-99.99,,,0.00,weatherlink.com 1.10,2013-11-06 11:39:00,
2013-11-06 13:54:00,73.0,73.0,29.74,SSE,168,8.0,-999.0,100,-99.99,,,0.00,weatherlink.com 1.10,2013-11-06 11:54:00,
2013-11-06 14:09:00,72.3,72.0,29.74,SSE,164,5.0,-999.0,100,-99.99,,,0.00,weatherlink.com 1.10,2013-11-06 12:09:00,
2013-11-06 14:24:00,72.1,72.0,29.74,SW,224,3.0,-999.0,100,-99.99,,,0.00,weatherlink.com 1.10,2013-11-06 12:24:00,
2013-11-06 14:39:00,72.1,72.0,29.74,SSE,160,7.0,-999.0,100,-99.99,,,0.00,weatherlink.com 1.10,2013-11-06 12:39:00,
2013-11-06 14:54:00,72.0,72.0,29.74,South,174,2.0,-999.0,100,-99.99,,,0.00,weatherlink.com 1.10,2013-11-06 12:54:00,
2013-11-06 15:09:00,72.0,72.0,29.74,South,174,4.0,-999.0,100,-99.99,,,0.00,weatherlink.com 1.10,2013-11-06 13:09:00,
2013-11-06 15:24:00,71.8,72.0,29.74,South,181,2.0,-999.0,100,-99.99,,,0.00,weatherlink.com 1.10,2013-11-06 13:24:00,
2013-11-06 15:39:00,70.9,71.0,29.74,SW,222,1.0,-999.0,100,-99.99,,,0.00,weatherlink.com 1.10,2013-11-06 13:39:00,
2013-11-06 15:54:00,70.4,70.0,29.73,South,181,0.0,-999.0,100,-99.99,,,0.00,weatherlink.com 1.10,2013-11-06 13:54:00,
2013-11-06 16:09:00,69.9,70.0,29.73,South,174,4.0,-999.0,100,-99.99,,,0.00,weatherlink.com 1.10,2013-11-06 14:09:00,
2013-11-06 16:24:00,69.8,70.0,29.73,South,174,4.0,-999.0,100,-99.99,,,0.00,weatherlink.com 1.10,2013-11-06 14:24:00,
2013-11-06 16:39:00,69.3,69.0,29.73,SSE,158,5.0,-999.0,100,-99.99,,,0.00,weatherlink.com 1.10,2013-11-06 14:39:00,
2013-11-06 16:54:00,68.4,68.0,29.73,SSE,154,0.0,-999.0,100,-99.99,,,0.00,weatherlink.com 1.10,2013-11-06 14:54:00,
2013-11-06 17:09:00,67.6,68.0,29.73,SSE,162,0.0,-999.0,100,-99.99,,,0.00,weatherlink.com 1.10,2013-11-06 15:09:00,
2013-11-06 17:24:00,67.1,67.0,29.74,SSE,165,0.0,-999.0,100,-99.99,,,0.00,weatherlink.com 1.10,2013-11-06 15:24:00,
2013-11-06 17:39:00,67.1,67.0,29.74,SSW,199,0.0,-999.0,100,-99.99,,,0.00,weatherlink.com 1.10,2013-11-06 15:39:00,
2013-11-06 17:54:00,66.8,67.0,29.74,SSW,199,0.0,-999.0,100,-99.99,,,0.00,weatherlink.com 1.10,2013-11-06 15:54:00,
2013-11-06 18:09:00,66.8,67.0,29.74,SSW,200,0.0,-999.0,100,-99.99,,,0.00,weatherlink.com 1.10,2013-11-06 16:09:00,
2013-11-06 18:24:00,66.6,67.0,29.74,South,188,0.0,-999.0,100,-99.99,,,0.00,weatherlink.com 1.10,2013-11-06 16:24:00,
2013-11-06 18:39:00,66.6,67.0,29.74,South,188,0.0,-999.0,100,-99.99,,,0.00,weatherlink.com 1.10,2013-11-06 16:39:00,
2013-11-06 18:54:00,66.4,66.0,29.75,South,188,0.0,-999.0,100,-99.99,,,0.00,weatherlink.com 1.10,2013-11-06 16:54:00,
2013-11-06 19:09:00,66.3,66.0,29.75,SSW,210,0.0,-999.0,100,-99.99,,,0.00,weatherlink.com 1.10,2013-11-06 17:09:00,
2013-11-06 19:24:00,66.3,66.0,29.75,SSW,206,0.0,-999.0,100,-99.99,,,0.00,weatherlink.com 1.10,2013-11-06 17:24:00,
2013-11-06 19:39:00,66.1,66.0,29.75,SSW,203,0.0,-999.0,100,-99.99,,,0.00,weatherlink.com 1.10,2013-11-06 17:39:00,
2013-11-06 19:54:00,65.6,66.0,29.74,SSW,209,0.0,-999.0,100,-99.99,,,0.00,weatherlink.com 1.10,2013-11-06 17:54:00,
2013-11-06 20:09:00,65.2,65.0,29.74,SSW,209,0.0,-999.0,100,-99.99,,,0.00,weatherlink.com 1.10,2013-11-06 18:09:00,
2013-11-06 20:24:00,65.0,65.0,29.74,SSW,206,0.0,-999.0,100,-99.99,,,0.00,weatherlink.com 1.10,2013-11-06 18:24:00,
2013-11-06 20:39:00,64.8,65.0,29.75,SSW,206,0.0,-999.0,100,-99.99,,,0.00,weatherlink.com 1.10,2013-11-06 18:39:00,
2013-11-06 20:54:00,64.7,65.0,29.75,SSW,206,0.0,-999.0,100,-99.99,,,0.00,weatherlink.com 1.10,2013-11-06 18:54:00,
2013-11-06 21:09:00,64.7,65.0,29.75,SSW,206,0.0,-999.0,100,-99.99,,,0.00,weatherlink.com 1.10,2013-11-06 19:09:00,
2013-11-06 21:24:00,64.2,64.0,29.76,SSW,196,0.0,-999.0,100,-99.99,,,0.00,weatherlink.com 1.10,2013-11-06 19:24:00,
2013-11-06 21:39:00,63.4,63.0,29.76,SSW,196,0.0,-999.0,100,-99.99,,,0.00,weatherlink.com 1.10,2013-11-06 19:39:00,
2013-11-06 21:54:00,63.2,63.0,29.76,SSW,196,0.0,-999.0,100,-99.99,,,0.00,weatherlink.com 1.10,2013-11-06 19:54:00,
2013-11-06 22:09:00,63.4,63.0,29.76,SSW,196,0.0,-999.0,100,-99.99,,,0.00,weatherlink.com 1.10,2013-11-06 20:09:00,
2013-11-06 22:25:00,63.5,64.0,29.76,SSW,196,0.0,-999.0,100,-99.99,,,0.00,weatherlink.com 1.10,2013-11-06 20:25:00,
2013-11-06 22:40:00,63.7,64.0,29.76,SSW,196,0.0,-999.0,100,-99.99,,,0.00,weatherlink.com 1.10,2013-11-06 20:40:00,
2013-11-06 22:55:00,63.5,64.0,29.75,SSW,196,0.0,-999.0,100,-99.99,,,0.00,weatherlink.com 1.10,2013-11-06 20:55:00,
2013-11-06 23:10:00,63.7,64.0,29.75,SSW,196,0.0,-999.0,100,-99.99,,,0.00,weatherlink.com 1.10,2013-11-06 21:10:00,
2013-11-06 23:25:00,63.2,63.0,29.75,SSW,196,0.0,-999.0,100,-99.99,,,0.00,weatherlink.com 1.10,2013-11-06 21:25:00,
2013-11-06 23:40:00,62.9,63.0,29.75,SSW,196,0.0,-999.0,100,-99.99,,,0.00,weatherlink.com 1.10,2013-11-06 21:40:00,
2013-11-06 23:55:00,63.2,63.0,29.75,SSW,196,0.0,-999.0,100,-99.99,,,0.00,weatherlink.com 1.10,2013-11-06 21:55:00,